Airfield :
LOGIN :

Register | Disclaimer

   EN    FR    IT 

 










Legend :    VFR   Marginal VFR   IFR   Intensive IFR   Very Intensive IFR
Visi :
Ceiling :
>= 8 km
>= 3000ft
5 to 8 km
1000 to 3000 ft
1500m to 5 km
500 to 1000 ft
800 to 1500m
200 to 500 ft
< 800m
< 200 ft
Symbols :   Thunderstorms  Fog  Heavy snow  Heavy precipitations  Wind > 20 kt
SIGMETs :     Misc.  Thunderstorms  Icing  Turbulence  Mountain Waves  Volcanic Ashes






- Airport Elevation : 1260 ft
- IATA code : LDE


LFBT - Tarbes / Ossun

CURRENT METAR :
  • 281230Z AUTO 27017KT 9999 SCT038 13/05 Q1019 TEMPO 28015G25KT

EXPIRED METARs :
  • 281200Z AUTO 26014KT 9999 FEW038 12/06 Q1019 TEMPO 28015G25KT 4000 SHRA BKN040TCU
  • 281130Z AUTO 26012KT 230V290 9999 BKN038 BKN044 BKN054 12/06 Q1019 TEMPO 28015G25KT 4000 SHRA BKN040TCU
  • 281100Z AUTO 26013KT 230V300 9999 OVC042 11/05 Q1020 TEMPO 28015G25KT 4000 SHRA BKN040TCU
  • 281030Z AUTO 25011KT 220V280 9999 OVC042 11/06 Q1019 TEMPO 28015G25KT 4000 SHRA BKN040TCU
  • 281000Z AUTO 25011KT 9999 OVC041 10/06 Q1019 TEMPO 28015G25KT 4000 SHRA BKN040TCU

TAF TAF LFBT
Valid from the 28 at 12:00 until the 29 at 12:00 UTC


281100Z 2812/2912 28010KT 9999 BKN040
TEMPO 2812/2818 28015G25KT
PROB30
TEMPO 2812/2813 4000 SHRA BKN040TCU
BECMG 2822/2824 22006KT
BECMG 2908/2910 VRB03KT



MET'MAP, your aeronautical weather chart ! - Copyright ORBIFLY December 2007 - Disclaimer

ORBIFLY MET'MAP TEAM :

Programming & Development : Alexandra Zaïnal
Concept & original design : Baudouin d'Aumeries
Assistance for programming : Marc-Olivier Méhu
Technical & hardware support : Manuel Goepfert

Contact : metmap@orbifly.com




SOURCES & CREDITS :

   NOAA